sensor_id;sensor_type;location;lat;lon;timestamp;P1;durP1;ratioP1;P2;durP2;ratioP2
21258;SDS011;10787;53.364;-1.480;2022-08-25T00:00:56;8.10;;;5.72;;
21258;SDS011;10787;53.364;-1.480;2022-08-25T00:03:22;6.68;;;5.32;;
21258;SDS011;10787;53.364;-1.480;2022-08-25T00:05:48;9.52;;;5.63;;
21258;SDS011;10787;53.364;-1.480;2022-08-25T00:08:14;7.35;;;5.03;;
21258;SDS011;10787;53.364;-1.480;2022-08-25T00:10:40;8.25;;;5.72;;
21258;SDS011;10787;53.364;-1.480;2022-08-25T00:13:06;7.82;;;5.40;;
21258;SDS011;10787;53.364;-1.480;2022-08-25T00:15:32;6.90;;;5.47;;
21258;SDS011;10787;53.364;-1.480;2022-08-25T00:17:58;8.25;;;6.20;;
21258;SDS011;10787;53.364;-1.480;2022-08-25T00:20:25;7.22;;;5.70;;
21258;SDS011;10787;53.364;-1.480;2022-08-25T00:22:52;8.60;;;5.80;;
21258;SDS011;10787;53.364;-1.480;2022-08-25T00:25:19;9.88;;;6.25;;
21258;SDS011;10787;53.364;-1.480;2022-08-25T00:27:48;10.07;;;6.15;;
21258;SDS011;10787;53.364;-1.480;2022-08-25T00:30:15;9.60;;;7.03;;
21258;SDS011;10787;53.364;-1.480;2022-08-25T00:32:43;10.57;;;7.38;;
21258;SDS011;10787;53.364;-1.480;2022-08-25T00:35:10;10.32;;;6.78;;
21258;SDS011;10787;53.364;-1.480;2022-08-25T00:37:36;8.88;;;5.80;;
21258;SDS011;10787;53.364;-1.480;2022-08-25T00:40:03;9.07;;;6.88;;
21258;SDS011;10787;53.364;-1.480;2022-08-25T00:42:30;8.73;;;5.10;;
21258;SDS011;10787;53.364;-1.480;2022-08-25T00:44:56;7.47;;;5.10;;
21258;SDS011;10787;53.364;-1.480;2022-08-25T00:47:22;7.82;;;4.90;;
21258;SDS011;10787;53.364;-1.480;2022-08-25T00:49:53;6.85;;;4.68;;
21258;SDS011;10787;53.364;-1.480;2022-08-25T00:52:31;5.97;;;4.28;;
21258;SDS011;10787;53.364;-1.480;2022-08-25T00:57:30;5.60;;;3.80;;
21258;SDS011;10787;53.364;-1.480;2022-08-25T01:00:01;6.13;;;3.80;;
21258;SDS011;10787;53.364;-1.480;2022-08-25T01:02:31;5.32;;;3.50;;
21258;SDS011;10787;53.364;-1.480;2022-08-25T01:04:57;6.22;;;3.40;;
21258;SDS011;10787;53.364;-1.480;2022-08-25T01:07:24;5.07;;;3.25;;
21258;SDS011;10787;53.364;-1.480;2022-08-25T01:09:49;4.47;;;3.20;;
21258;SDS011;10787;53.364;-1.480;2022-08-25T01:12:17;5.47;;;3.17;;
21258;SDS011;10787;53.364;-1.480;2022-08-25T01:14:44;6.65;;;3.72;;
21258;SDS011;10787;53.364;-1.480;2022-08-25T01:17:12;5.28;;;3.47;;
21258;SDS011;10787;53.364;-1.480;2022-08-25T01:19:38;6.53;;;3.90;;
21258;SDS011;10787;53.364;-1.480;2022-08-25T01:22:04;6.25;;;3.78;;
21258;SDS011;10787;53.364;-1.480;2022-08-25T01:24:34;8.60;;;4.20;;
21258;SDS011;10787;53.364;-1.480;2022-08-25T01:27:07;7.28;;;4.10;;
21258;SDS011;10787;53.364;-1.480;2022-08-25T01:29:34;7.97;;;4.10;;
21258;SDS011;10787;53.364;-1.480;2022-08-25T01:32:02;7.45;;;4.60;;
21258;SDS011;10787;53.364;-1.480;2022-08-25T01:34:35;8.18;;;4.43;;
21258;SDS011;10787;53.364;-1.480;2022-08-25T01:37:03;8.27;;;4.57;;
21258;SDS011;10787;53.364;-1.480;2022-08-25T01:39:30;7.28;;;4.53;;
21258;SDS011;10787;53.364;-1.480;2022-08-25T01:44:33;7.80;;;4.90;;
21258;SDS011;10787;53.364;-1.480;2022-08-25T01:47:01;8.05;;;5.10;;
21258;SDS011;10787;53.364;-1.480;2022-08-25T01:49:28;6.95;;;5.07;;
21258;SDS011;10787;53.364;-1.480;2022-08-25T01:51:55;9.73;;;5.78;;
21258;SDS011;10787;53.364;-1.480;2022-08-25T01:54:26;13.90;;;6.32;;
21258;SDS011;10787;53.364;-1.480;2022-08-25T01:56:51;10.60;;;6.20;;
21258;SDS011;10787;53.364;-1.480;2022-08-25T01:59:18;9.27;;;6.10;;
21258;SDS011;10787;53.364;-1.480;2022-08-25T02:01:45;9.77;;;5.97;;
21258;SDS011;10787;53.364;-1.480;2022-08-25T02:04:11;10.57;;;6.13;;
21258;SDS011;10787;53.364;-1.480;2022-08-25T02:06:37;11.50;;;5.93;;
21258;SDS011;10787;53.364;-1.480;2022-08-25T02:09:08;8.95;;;6.65;;
21258;SDS011;10787;53.364;-1.480;2022-08-25T02:11:37;10.27;;;6.25;;
21258;SDS011;10787;53.364;-1.480;2022-08-25T02:14:06;10.55;;;6.22;;
21258;SDS011;10787;53.364;-1.480;2022-08-25T02:16:34;7.53;;;5.80;;
21258;SDS011;10787;53.364;-1.480;2022-08-25T02:19:02;8.63;;;6.38;;
21258;SDS011;10787;53.364;-1.480;2022-08-25T02:21:30;11.68;;;6.65;;
21258;SDS011;10787;53.364;-1.480;2022-08-25T02:23:56;9.07;;;6.50;;
21258;SDS011;10787;53.364;-1.480;2022-08-25T02:26:22;10.45;;;6.00;;
21258;SDS011;10787;53.364;-1.480;2022-08-25T02:28:49;8.05;;;5.85;;
21258;SDS011;10787;53.364;-1.480;2022-08-25T02:31:16;9.15;;;5.55;;
21258;SDS011;10787;53.364;-1.480;2022-08-25T02:33:44;8.07;;;5.18;;
21258;SDS011;10787;53.364;-1.480;2022-08-25T02:36:11;8.95;;;5.40;;
21258;SDS011;10787;53.364;-1.480;2022-08-25T02:38:37;8.13;;;5.13;;
21258;SDS011;10787;53.364;-1.480;2022-08-25T02:41:17;9.45;;;5.43;;
21258;SDS011;10787;53.364;-1.480;2022-08-25T02:43:46;10.82;;;5.03;;
21258;SDS011;10787;53.364;-1.480;2022-08-25T02:46:13;10.13;;;4.60;;
21258;SDS011;10787;53.364;-1.480;2022-08-25T02:48:40;7.47;;;4.15;;
21258;SDS011;10787;53.364;-1.480;2022-08-25T02:51:07;6.38;;;4.10;;
21258;SDS011;10787;53.364;-1.480;2022-08-25T02:53:34;7.55;;;4.43;;
21258;SDS011;10787;53.364;-1.480;2022-08-25T02:56:04;5.68;;;3.90;;
21258;SDS011;10787;53.364;-1.480;2022-08-25T02:58:34;8.45;;;4.07;;
21258;SDS011;10787;53.364;-1.480;2022-08-25T03:01:00;8.02;;;4.10;;
21258;SDS011;10787;53.364;-1.480;2022-08-25T03:03:26;7.55;;;3.78;;
21258;SDS011;10787;53.364;-1.480;2022-08-25T03:05:52;6.47;;;3.88;;
21258;SDS011;10787;53.364;-1.480;2022-08-25T03:08:18;5.40;;;3.60;;
21258;SDS011;10787;53.364;-1.480;2022-08-25T03:10:44;5.72;;;3.50;;
21258;SDS011;10787;53.364;-1.480;2022-08-25T03:13:10;8.38;;;3.30;;
21258;SDS011;10787;53.364;-1.480;2022-08-25T03:15:36;5.40;;;3.30;;
21258;SDS011;10787;53.364;-1.480;2022-08-25T03:18:03;5.00;;;3.20;;
21258;SDS011;10787;53.364;-1.480;2022-08-25T03:20:29;6.07;;;3.25;;
21258;SDS011;10787;53.364;-1.480;2022-08-25T03:22:55;3.97;;;2.78;;
21258;SDS011;10787;53.364;-1.480;2022-08-25T03:25:21;6.57;;;2.90;;
21258;SDS011;10787;53.364;-1.480;2022-08-25T03:28:06;5.28;;;2.90;;
21258;SDS011;10787;53.364;-1.480;2022-08-25T03:30:32;3.80;;;2.55;;
21258;SDS011;10787;53.364;-1.480;2022-08-25T03:32:58;4.82;;;3.00;;
21258;SDS011;10787;53.364;-1.480;2022-08-25T03:35:24;5.75;;;2.92;;
21258;SDS011;10787;53.364;-1.480;2022-08-25T03:37:53;4.97;;;3.20;;
21258;SDS011;10787;53.364;-1.480;2022-08-25T03:40:20;7.60;;;3.05;;
21258;SDS011;10787;53.364;-1.480;2022-08-25T03:42:47;4.25;;;2.88;;
21258;SDS011;10787;53.364;-1.480;2022-08-25T03:45:15;6.93;;;2.88;;
21258;SDS011;10787;53.364;-1.480;2022-08-25T03:47:45;6.85;;;3.10;;
21258;SDS011;10787;53.364;-1.480;2022-08-25T03:50:12;6.80;;;3.30;;
21258;SDS011;10787;53.364;-1.480;2022-08-25T03:52:40;5.55;;;3.38;;
21258;SDS011;10787;53.364;-1.480;2022-08-25T03:55:08;5.25;;;3.40;;
21258;SDS011;10787;53.364;-1.480;2022-08-25T03:57:36;5.03;;;3.70;;
21258;SDS011;10787;53.364;-1.480;2022-08-25T04:00:04;5.60;;;3.40;;
21258;SDS011;10787;53.364;-1.480;2022-08-25T04:02:33;5.28;;;3.15;;
21258;SDS011;10787;53.364;-1.480;2022-08-25T04:05:03;6.90;;;3.42;;
21258;SDS011;10787;53.364;-1.480;2022-08-25T04:07:39;5.43;;;3.55;;
21258;SDS011;10787;53.364;-1.480;2022-08-25T04:10:06;7.32;;;3.45;;
21258;SDS011;10787;53.364;-1.480;2022-08-25T04:12:34;6.78;;;3.30;;
21258;SDS011;10787;53.364;-1.480;2022-08-25T04:15:10;5.35;;;3.40;;
21258;SDS011;10787;53.364;-1.480;2022-08-25T04:17:37;5.55;;;3.30;;
21258;SDS011;10787;53.364;-1.480;2022-08-25T04:20:04;5.22;;;3.28;;
21258;SDS011;10787;53.364;-1.480;2022-08-25T04:22:35;5.13;;;3.05;;
21258;SDS011;10787;53.364;-1.480;2022-08-25T04:25:03;5.90;;;3.20;;
21258;SDS011;10787;53.364;-1.480;2022-08-25T04:27:30;7.78;;;3.25;;
21258;SDS011;10787;53.364;-1.480;2022-08-25T04:29:56;4.80;;;3.10;;
21258;SDS011;10787;53.364;-1.480;2022-08-25T04:32:22;7.57;;;3.22;;
21258;SDS011;10787;53.364;-1.480;2022-08-25T04:34:47;5.82;;;3.50;;
21258;SDS011;10787;53.364;-1.480;2022-08-25T04:37:14;6.35;;;3.40;;
21258;SDS011;10787;53.364;-1.480;2022-08-25T04:39:42;5.80;;;3.67;;
21258;SDS011;10787;53.364;-1.480;2022-08-25T04:42:08;5.47;;;3.35;;
21258;SDS011;10787;53.364;-1.480;2022-08-25T04:44:35;8.20;;;3.33;;
21258;SDS011;10787;53.364;-1.480;2022-08-25T04:47:01;5.38;;;3.10;;
21258;SDS011;10787;53.364;-1.480;2022-08-25T04:49:28;4.32;;;3.33;;
21258;SDS011;10787;53.364;-1.480;2022-08-25T04:51:54;5.05;;;3.30;;
21258;SDS011;10787;53.364;-1.480;2022-08-25T04:54:21;5.63;;;3.22;;
21258;SDS011;10787;53.364;-1.480;2022-08-25T04:56:49;6.03;;;3.45;;
21258;SDS011;10787;53.364;-1.480;2022-08-25T04:59:17;5.25;;;3.15;;
21258;SDS011;10787;53.364;-1.480;2022-08-25T05:01:43;5.28;;;3.13;;
21258;SDS011;10787;53.364;-1.480;2022-08-25T05:04:11;6.25;;;3.20;;
21258;SDS011;10787;53.364;-1.480;2022-08-25T05:06:42;5.60;;;3.20;;
21258;SDS011;10787;53.364;-1.480;2022-08-25T05:09:09;4.65;;;3.10;;
21258;SDS011;10787;53.364;-1.480;2022-08-25T05:11:35;8.35;;;3.35;;
21258;SDS011;10787;53.364;-1.480;2022-08-25T05:14:01;5.30;;;3.30;;
21258;SDS011;10787;53.364;-1.480;2022-08-25T05:16:27;5.80;;;3.50;;
21258;SDS011;10787;53.364;-1.480;2022-08-25T05:18:53;6.63;;;3.60;;
21258;SDS011;10787;53.364;-1.480;2022-08-25T05:21:21;5.13;;;3.30;;
21258;SDS011;10787;53.364;-1.480;2022-08-25T05:23:48;5.93;;;3.50;;
21258;SDS011;10787;53.364;-1.480;2022-08-25T05:26:22;5.32;;;3.10;;
21258;SDS011;10787;53.364;-1.480;2022-08-25T05:28:49;5.22;;;3.20;;
21258;SDS011;10787;53.364;-1.480;2022-08-25T05:31:16;7.72;;;3.42;;
21258;SDS011;10787;53.364;-1.480;2022-08-25T05:33:43;10.18;;;3.75;;
21258;SDS011;10787;53.364;-1.480;2022-08-25T05:36:10;6.90;;;3.42;;
21258;SDS011;10787;53.364;-1.480;2022-08-25T05:38:38;6.72;;;3.15;;
21258;SDS011;10787;53.364;-1.480;2022-08-25T05:41:07;5.78;;;3.20;;
21258;SDS011;10787;53.364;-1.480;2022-08-25T05:43:38;7.40;;;3.40;;
21258;SDS011;10787;53.364;-1.480;2022-08-25T05:46:05;4.80;;;3.10;;
21258;SDS011;10787;53.364;-1.480;2022-08-25T05:48:39;5.05;;;2.70;;
21258;SDS011;10787;53.364;-1.480;2022-08-25T05:51:05;3.33;;;2.35;;
21258;SDS011;10787;53.364;-1.480;2022-08-25T05:53:35;3.03;;;1.90;;
21258;SDS011;10787;53.364;-1.480;2022-08-25T05:56:03;3.22;;;1.90;;
21258;SDS011;10787;53.364;-1.480;2022-08-25T05:58:29;2.50;;;1.90;;
21258;SDS011;10787;53.364;-1.480;2022-08-25T06:00:56;4.93;;;2.20;;
21258;SDS011;10787;53.364;-1.480;2022-08-25T06:03:42;2.95;;;2.05;;
21258;SDS011;10787;53.364;-1.480;2022-08-25T06:06:11;2.40;;;1.90;;
21258;SDS011;10787;53.364;-1.480;2022-08-25T06:08:37;2.25;;;1.73;;
21258;SDS011;10787;53.364;-1.480;2022-08-25T06:11:03;3.53;;;2.03;;
21258;SDS011;10787;53.364;-1.480;2022-08-25T06:13:29;3.58;;;2.10;;
21258;SDS011;10787;53.364;-1.480;2022-08-25T06:15:58;4.28;;;2.00;;
21258;SDS011;10787;53.364;-1.480;2022-08-25T06:18:32;3.70;;;2.10;;
21258;SDS011;10787;53.364;-1.480;2022-08-25T06:21:05;3.33;;;1.85;;
21258;SDS011;10787;53.364;-1.480;2022-08-25T06:23:38;3.70;;;1.83;;
21258;SDS011;10787;53.364;-1.480;2022-08-25T06:26:05;2.97;;;1.80;;
21258;SDS011;10787;53.364;-1.480;2022-08-25T06:28:33;3.90;;;2.10;;
21258;SDS011;10787;53.364;-1.480;2022-08-25T06:31:00;4.30;;;2.20;;
21258;SDS011;10787;53.364;-1.480;2022-08-25T06:33:26;4.60;;;2.10;;
21258;SDS011;10787;53.364;-1.480;2022-08-25T06:35:53;4.78;;;2.00;;
21258;SDS011;10787;53.364;-1.480;2022-08-25T06:38:20;2.60;;;1.90;;
21258;SDS011;10787;53.364;-1.480;2022-08-25T06:40:47;2.97;;;1.80;;
21258;SDS011;10787;53.364;-1.480;2022-08-25T06:43:16;1.70;;;1.50;;
21258;SDS011;10787;53.364;-1.480;2022-08-25T06:45:42;2.78;;;1.80;;
21258;SDS011;10787;53.364;-1.480;2022-08-25T06:48:08;2.05;;;1.80;;
21258;SDS011;10787;53.364;-1.480;2022-08-25T06:50:38;2.67;;;1.63;;
21258;SDS011;10787;53.364;-1.480;2022-08-25T06:53:05;2.85;;;1.73;;
21258;SDS011;10787;53.364;-1.480;2022-08-25T06:55:31;2.58;;;1.67;;
21258;SDS011;10787;53.364;-1.480;2022-08-25T06:57:59;3.08;;;1.75;;
21258;SDS011;10787;53.364;-1.480;2022-08-25T07:00:25;2.28;;;1.63;;
21258;SDS011;10787;53.364;-1.480;2022-08-25T07:02:51;2.78;;;1.75;;
21258;SDS011;10787;53.364;-1.480;2022-08-25T07:05:17;2.97;;;1.70;;
21258;SDS011;10787;53.364;-1.480;2022-08-25T07:07:43;3.40;;;1.90;;
21258;SDS011;10787;53.364;-1.480;2022-08-25T07:10:10;2.78;;;1.70;;
21258;SDS011;10787;53.364;-1.480;2022-08-25T07:12:38;2.50;;;1.77;;
21258;SDS011;10787;53.364;-1.480;2022-08-25T07:15:24;4.07;;;1.40;;
21258;SDS011;10787;53.364;-1.480;2022-08-25T07:17:56;3.47;;;1.40;;
21258;SDS011;10787;53.364;-1.480;2022-08-25T07:20:22;2.55;;;1.58;;
21258;SDS011;10787;53.364;-1.480;2022-08-25T07:22:47;2.22;;;1.40;;
21258;SDS011;10787;53.364;-1.480;2022-08-25T07:25:13;2.40;;;1.33;;
21258;SDS011;10787;53.364;-1.480;2022-08-25T07:27:39;3.17;;;1.45;;
21258;SDS011;10787;53.364;-1.480;2022-08-25T07:30:05;3.92;;;1.50;;
21258;SDS011;10787;53.364;-1.480;2022-08-25T07:32:32;2.88;;;1.48;;
21258;SDS011;10787;53.364;-1.480;2022-08-25T07:34:57;3.25;;;1.30;;
21258;SDS011;10787;53.364;-1.480;2022-08-25T07:37:46;2.70;;;1.52;;
21258;SDS011;10787;53.364;-1.480;2022-08-25T07:40:16;2.88;;;1.40;;
21258;SDS011;10787;53.364;-1.480;2022-08-25T07:42:43;2.45;;;1.40;;
21258;SDS011;10787;53.364;-1.480;2022-08-25T07:45:10;3.58;;;1.20;;
21258;SDS011;10787;53.364;-1.480;2022-08-25T07:47:37;2.15;;;1.33;;
21258;SDS011;10787;53.364;-1.480;2022-08-25T07:50:04;2.67;;;1.40;;
21258;SDS011;10787;53.364;-1.480;2022-08-25T07:52:32;1.70;;;1.30;;
21258;SDS011;10787;53.364;-1.480;2022-08-25T07:54:58;2.50;;;1.40;;
21258;SDS011;10787;53.364;-1.480;2022-08-25T07:57:24;3.47;;;1.38;;
21258;SDS011;10787;53.364;-1.480;2022-08-25T07:59:52;2.88;;;1.60;;
21258;SDS011;10787;53.364;-1.480;2022-08-25T08:02:18;2.10;;;1.45;;
21258;SDS011;10787;53.364;-1.480;2022-08-25T08:04:45;2.85;;;1.85;;
21258;SDS011;10787;53.364;-1.480;2022-08-25T08:07:14;1.63;;;1.45;;
21258;SDS011;10787;53.364;-1.480;2022-08-25T08:09:44;3.53;;;1.60;;
21258;SDS011;10787;53.364;-1.480;2022-08-25T08:12:11;2.97;;;1.80;;
21258;SDS011;10787;53.364;-1.480;2022-08-25T08:14:37;3.40;;;1.80;;
21258;SDS011;10787;53.364;-1.480;2022-08-25T08:17:07;4.32;;;1.80;;
21258;SDS011;10787;53.364;-1.480;2022-08-25T08:19:34;4.03;;;2.00;;
21258;SDS011;10787;53.364;-1.480;2022-08-25T08:22:01;3.88;;;2.10;;
21258;SDS011;10787;53.364;-1.480;2022-08-25T08:24:29;2.47;;;1.98;;
21258;SDS011;10787;53.364;-1.480;2022-08-25T08:26:56;3.83;;;2.00;;
21258;SDS011;10787;53.364;-1.480;2022-08-25T08:29:22;6.07;;;1.90;;
21258;SDS011;10787;53.364;-1.480;2022-08-25T08:31:49;3.22;;;1.80;;
21258;SDS011;10787;53.364;-1.480;2022-08-25T08:34:15;3.33;;;1.60;;
21258;SDS011;10787;53.364;-1.480;2022-08-25T08:36:41;2.42;;;1.63;;
21258;SDS011;10787;53.364;-1.480;2022-08-25T08:39:07;3.53;;;1.65;;
21258;SDS011;10787;53.364;-1.480;2022-08-25T08:44:36;2.95;;;1.63;;
21258;SDS011;10787;53.364;-1.480;2022-08-25T08:50:13;3.53;;;1.63;;
21258;SDS011;10787;53.364;-1.480;2022-08-25T08:53:08;3.38;;;2.00;;
21258;SDS011;10787;53.364;-1.480;2022-08-25T08:55:47;4.70;;;1.90;;
21258;SDS011;10787;53.364;-1.480;2022-08-25T08:58:20;6.80;;;2.40;;
21258;SDS011;10787;53.364;-1.480;2022-08-25T09:00:54;6.28;;;2.30;;
21258;SDS011;10787;53.364;-1.480;2022-08-25T09:03:33;8.43;;;2.50;;
21258;SDS011;10787;53.364;-1.480;2022-08-25T09:06:06;11.00;;;2.42;;
21258;SDS011;10787;53.364;-1.480;2022-08-25T09:08:35;10.93;;;2.50;;
21258;SDS011;10787;53.364;-1.480;2022-08-25T09:11:07;5.32;;;2.08;;
21258;SDS011;10787;53.364;-1.480;2022-08-25T09:30:16;6.38;;;1.90;;
21258;SDS011;10787;53.364;-1.480;2022-08-25T09:33:04;4.53;;;2.35;;
21258;SDS011;10787;53.364;-1.480;2022-08-25T09:35:32;4.15;;;1.90;;
21258;SDS011;10787;53.364;-1.480;2022-08-25T09:38:05;2.90;;;2.08;;
21258;SDS011;10787;53.364;-1.480;2022-08-25T09:40:37;5.07;;;2.50;;
21258;SDS011;10787;53.364;-1.480;2022-08-25T09:46:01;6.30;;;3.00;;
21258;SDS011;10787;53.364;-1.480;2022-08-25T09:48:42;5.00;;;2.80;;
21258;SDS011;10787;53.364;-1.480;2022-08-25T09:53:56;4.18;;;2.70;;
21258;SDS011;10787;53.364;-1.480;2022-08-25T09:56:31;5.78;;;2.90;;
21258;SDS011;10787;53.364;-1.480;2022-08-25T10:01:52;3.80;;;2.60;;
21258;SDS011;10787;53.364;-1.480;2022-08-25T10:04:26;5.22;;;2.92;;
21258;SDS011;10787;53.364;-1.480;2022-08-25T10:06:56;6.57;;;2.90;;
21258;SDS011;10787;53.364;-1.480;2022-08-25T10:09:29;4.28;;;2.78;;
21258;SDS011;10787;53.364;-1.480;2022-08-25T10:11:59;5.97;;;2.67;;
21258;SDS011;10787;53.364;-1.480;2022-08-25T10:14:33;4.68;;;2.83;;
21258;SDS011;10787;53.364;-1.480;2022-08-25T10:19:52;23.70;;;11.57;;
21258;SDS011;10787;53.364;-1.480;2022-08-25T10:22:37;8.95;;;3.70;;
21258;SDS011;10787;53.364;-1.480;2022-08-25T10:25:05;6.07;;;3.72;;
21258;SDS011;10787;53.364;-1.480;2022-08-25T10:28:23;8.00;;;3.90;;
21258;SDS011;10787;53.364;-1.480;2022-08-25T10:30:34;5.65;;;3.78;;
21258;SDS011;10787;53.364;-1.480;2022-08-25T10:33:08;6.55;;;3.50;;
21258;SDS011;10787;53.364;-1.480;2022-08-25T10:38:32;6.57;;;3.70;;
21258;SDS011;10787;53.364;-1.480;2022-08-25T10:41:10;5.47;;;3.70;;
21258;SDS011;10787;53.364;-1.480;2022-08-25T10:49:44;5.07;;;3.75;;
21258;SDS011;10787;53.364;-1.480;2022-08-25T10:52:19;8.10;;;4.10;;
21258;SDS011;10787;53.364;-1.480;2022-08-25T10:55:07;6.25;;;3.80;;
21258;SDS011;10787;53.364;-1.480;2022-08-25T10:58:07;10.77;;;4.05;;
21258;SDS011;10787;53.364;-1.480;2022-08-25T11:00:41;6.25;;;4.18;;
21258;SDS011;10787;53.364;-1.480;2022-08-25T11:06:09;9.02;;;4.85;;
21258;SDS011;10787;53.364;-1.480;2022-08-25T11:08:54;12.13;;;6.03;;
21258;SDS011;10787;53.364;-1.480;2022-08-25T11:13:52;14.43;;;7.07;;
21258;SDS011;10787;53.364;-1.480;2022-08-25T11:17:11;11.45;;;7.32;;
21258;SDS011;10787;53.364;-1.480;2022-08-25T11:19:29;11.90;;;6.50;;
21258;SDS011;10787;53.364;-1.480;2022-08-25T11:22:00;11.18;;;6.50;;
21258;SDS011;10787;53.364;-1.480;2022-08-25T11:27:20;11.02;;;5.60;;
21258;SDS011;10787;53.364;-1.480;2022-08-25T11:29:52;10.15;;;6.03;;
21258;SDS011;10787;53.364;-1.480;2022-08-25T11:32:49;9.93;;;4.88;;
21258;SDS011;10787;53.364;-1.480;2022-08-25T11:35:25;8.80;;;4.80;;
21258;SDS011;10787;53.364;-1.480;2022-08-25T11:40:53;7.00;;;4.60;;
21258;SDS011;10787;53.364;-1.480;2022-08-25T11:47:10;8.98;;;5.35;;
21258;SDS011;10787;53.364;-1.480;2022-08-25T11:50:04;8.98;;;5.68;;
21258;SDS011;10787;53.364;-1.480;2022-08-25T11:55:15;10.20;;;5.85;;
21258;SDS011;10787;53.364;-1.480;2022-08-25T11:57:46;9.55;;;5.50;;
21258;SDS011;10787;53.364;-1.480;2022-08-25T12:02:54;10.40;;;5.93;;
21258;SDS011;10787;53.364;-1.480;2022-08-25T12:07:56;10.50;;;6.40;;
21258;SDS011;10787;53.364;-1.480;2022-08-25T12:11:03;10.48;;;6.63;;
21258;SDS011;10787;53.364;-1.480;2022-08-25T12:27:08;13.73;;;5.43;;
21258;SDS011;10787;53.364;-1.480;2022-08-25T12:30:00;8.07;;;5.20;;
21258;SDS011;10787;53.364;-1.480;2022-08-25T12:35:32;8.73;;;4.70;;
21258;SDS011;10787;53.364;-1.480;2022-08-25T12:41:13;6.13;;;4.10;;
21258;SDS011;10787;53.364;-1.480;2022-08-25T12:43:48;6.43;;;4.22;;
21258;SDS011;10787;53.364;-1.480;2022-08-25T12:54:09;6.28;;;3.15;;
21258;SDS011;10787;53.364;-1.480;2022-08-25T12:56:41;7.05;;;3.25;;
21258;SDS011;10787;53.364;-1.480;2022-08-25T12:59:16;9.38;;;3.40;;
21258;SDS011;10787;53.364;-1.480;2022-08-25T13:10:19;6.45;;;3.72;;
21258;SDS011;10787;53.364;-1.480;2022-08-25T13:15:39;5.35;;;3.30;;
21258;SDS011;10787;53.364;-1.480;2022-08-25T13:21:00;5.22;;;3.42;;
21258;SDS011;10787;53.364;-1.480;2022-08-25T13:23:28;6.32;;;3.40;;
21258;SDS011;10787;53.364;-1.480;2022-08-25T13:25:55;6.63;;;3.40;;
21258;SDS011;10787;53.364;-1.480;2022-08-25T13:28:23;6.10;;;3.25;;
21258;SDS011;10787;53.364;-1.480;2022-08-25T13:31:00;6.20;;;3.15;;
21258;SDS011;10787;53.364;-1.480;2022-08-25T13:33:29;7.75;;;3.60;;
21258;SDS011;10787;53.364;-1.480;2022-08-25T13:35:57;6.22;;;3.40;;
21258;SDS011;10787;53.364;-1.480;2022-08-25T13:38:44;5.88;;;3.20;;
21258;SDS011;10787;53.364;-1.480;2022-08-25T13:41:19;7.22;;;3.22;;
21258;SDS011;10787;53.364;-1.480;2022-08-25T13:43:48;5.60;;;3.22;;
21258;SDS011;10787;53.364;-1.480;2022-08-25T13:46:19;4.75;;;3.08;;
21258;SDS011;10787;53.364;-1.480;2022-08-25T13:48:46;8.10;;;3.17;;
21258;SDS011;10787;53.364;-1.480;2022-08-25T13:51:19;5.55;;;2.80;;
21258;SDS011;10787;53.364;-1.480;2022-08-25T13:53:52;6.65;;;3.08;;
21258;SDS011;10787;53.364;-1.480;2022-08-25T13:56:49;5.40;;;2.83;;
21258;SDS011;10787;53.364;-1.480;2022-08-25T13:59:22;4.53;;;2.80;;
21258;SDS011;10787;53.364;-1.480;2022-08-25T14:01:52;5.55;;;2.92;;
21258;SDS011;10787;53.364;-1.480;2022-08-25T14:12:24;4.78;;;2.80;;
21258;SDS011;10787;53.364;-1.480;2022-08-25T14:14:58;6.60;;;3.13;;
21258;SDS011;10787;53.364;-1.480;2022-08-25T14:17:25;6.47;;;2.08;;
21258;SDS011;10787;53.364;-1.480;2022-08-25T14:19:52;3.92;;;2.22;;
21258;SDS011;10787;53.364;-1.480;2022-08-25T14:22:18;4.25;;;2.05;;
21258;SDS011;10787;53.364;-1.480;2022-08-25T14:24:43;3.33;;;2.13;;
21258;SDS011;10787;53.364;-1.480;2022-08-25T14:27:09;4.38;;;2.03;;
21258;SDS011;10787;53.364;-1.480;2022-08-25T14:29:35;3.95;;;1.70;;
21258;SDS011;10787;53.364;-1.480;2022-08-25T14:32:01;4.95;;;1.85;;
21258;SDS011;10787;53.364;-1.480;2022-08-25T14:34:32;3.58;;;1.40;;
21258;SDS011;10787;53.364;-1.480;2022-08-25T14:37:00;5.15;;;1.70;;
21258;SDS011;10787;53.364;-1.480;2022-08-25T14:39:30;3.47;;;1.83;;
21258;SDS011;10787;53.364;-1.480;2022-08-25T14:41:56;4.05;;;1.90;;
21258;SDS011;10787;53.364;-1.480;2022-08-25T14:44:22;3.10;;;1.60;;
21258;SDS011;10787;53.364;-1.480;2022-08-25T14:46:50;4.80;;;1.80;;
21258;SDS011;10787;53.364;-1.480;2022-08-25T14:49:20;3.53;;;2.13;;
21258;SDS011;10787;53.364;-1.480;2022-08-25T14:51:51;3.97;;;2.00;;
21258;SDS011;10787;53.364;-1.480;2022-08-25T14:54:17;5.32;;;2.00;;
21258;SDS011;10787;53.364;-1.480;2022-08-25T14:56:45;4.40;;;2.20;;
21258;SDS011;10787;53.364;-1.480;2022-08-25T14:59:12;5.57;;;2.80;;
21258;SDS011;10787;53.364;-1.480;2022-08-25T15:01:38;9.52;;;2.70;;
21258;SDS011;10787;53.364;-1.480;2022-08-25T15:04:09;5.60;;;2.90;;
21258;SDS011;10787;53.364;-1.480;2022-08-25T15:06:38;4.65;;;3.08;;
21258;SDS011;10787;53.364;-1.480;2022-08-25T15:09:12;5.05;;;3.38;;
21258;SDS011;10787;53.364;-1.480;2022-08-25T15:11:47;5.95;;;3.33;;
21258;SDS011;10787;53.364;-1.480;2022-08-25T15:14:15;6.38;;;3.60;;
21258;SDS011;10787;53.364;-1.480;2022-08-25T15:16:47;6.97;;;3.65;;
21258;SDS011;10787;53.364;-1.480;2022-08-25T15:19:15;8.77;;;3.50;;
21258;SDS011;10787;53.364;-1.480;2022-08-25T15:21:44;9.65;;;3.45;;
21258;SDS011;10787;53.364;-1.480;2022-08-25T15:24:11;9.43;;;3.80;;
21258;SDS011;10787;53.364;-1.480;2022-08-25T15:26:43;7.88;;;3.60;;
21258;SDS011;10787;53.364;-1.480;2022-08-25T15:29:15;9.32;;;3.60;;
21258;SDS011;10787;53.364;-1.480;2022-08-25T15:31:42;5.05;;;3.10;;
21258;SDS011;10787;53.364;-1.480;2022-08-25T15:34:09;6.10;;;3.55;;
21258;SDS011;10787;53.364;-1.480;2022-08-25T15:36:35;5.45;;;3.58;;
21258;SDS011;10787;53.364;-1.480;2022-08-25T15:39:02;6.05;;;3.33;;
21258;SDS011;10787;53.364;-1.480;2022-08-25T15:41:29;4.72;;;2.80;;
21258;SDS011;10787;53.364;-1.480;2022-08-25T15:43:55;5.00;;;2.85;;
21258;SDS011;10787;53.364;-1.480;2022-08-25T15:46:26;4.90;;;3.00;;
21258;SDS011;10787;53.364;-1.480;2022-08-25T15:48:54;6.55;;;2.90;;
21258;SDS011;10787;53.364;-1.480;2022-08-25T15:51:24;5.85;;;3.50;;
21258;SDS011;10787;53.364;-1.480;2022-08-25T15:53:50;4.88;;;3.40;;
21258;SDS011;10787;53.364;-1.480;2022-08-25T15:56:16;6.38;;;3.50;;
21258;SDS011;10787;53.364;-1.480;2022-08-25T15:58:43;5.82;;;3.42;;
21258;SDS011;10787;53.364;-1.480;2022-08-25T16:01:14;5.90;;;3.22;;
21258;SDS011;10787;53.364;-1.480;2022-08-25T16:03:45;6.32;;;3.40;;
21258;SDS011;10787;53.364;-1.480;2022-08-25T16:06:12;6.75;;;3.65;;
21258;SDS011;10787;53.364;-1.480;2022-08-25T16:08:37;5.15;;;3.33;;
21258;SDS011;10787;53.364;-1.480;2022-08-25T16:11:04;4.88;;;3.40;;
21258;SDS011;10787;53.364;-1.480;2022-08-25T16:13:30;9.10;;;3.72;;
21258;SDS011;10787;53.364;-1.480;2022-08-25T16:15:57;5.25;;;3.47;;
21258;SDS011;10787;53.364;-1.480;2022-08-25T16:18:24;5.05;;;3.65;;
21258;SDS011;10787;53.364;-1.480;2022-08-25T16:20:50;7.78;;;3.72;;
21258;SDS011;10787;53.364;-1.480;2022-08-25T16:23:17;6.88;;;3.80;;
21258;SDS011;10787;53.364;-1.480;2022-08-25T16:25:44;6.40;;;3.50;;
21258;SDS011;10787;53.364;-1.480;2022-08-25T16:28:12;4.28;;;3.78;;
21258;SDS011;10787;53.364;-1.480;2022-08-25T16:30:39;7.15;;;3.20;;
21258;SDS011;10787;53.364;-1.480;2022-08-25T16:33:09;5.28;;;3.20;;
21258;SDS011;10787;53.364;-1.480;2022-08-25T16:35:35;6.53;;;3.50;;
21258;SDS011;10787;53.364;-1.480;2022-08-25T16:38:01;5.13;;;3.30;;
21258;SDS011;10787;53.364;-1.480;2022-08-25T16:40:28;7.47;;;3.70;;
21258;SDS011;10787;53.364;-1.480;2022-08-25T16:42:55;8.27;;;3.88;;
21258;SDS011;10787;53.364;-1.480;2022-08-25T16:45:22;8.20;;;3.40;;
21258;SDS011;10787;53.364;-1.480;2022-08-25T16:47:48;8.98;;;3.75;;